sensor_id;sensor_type;location;lat;lon;timestamp;P1;durP1;ratioP1;P2;durP2;ratioP2
37065;SDS011;22981;43.080;25.550;2022-11-15T00:01:08;16.30;;;12.25;;
37065;SDS011;22981;43.080;25.550;2022-11-15T00:03:37;18.17;;;13.93;;
37065;SDS011;22981;43.080;25.550;2022-11-15T00:06:05;17.25;;;13.22;;
37065;SDS011;22981;43.080;25.550;2022-11-15T00:08:32;18.07;;;14.13;;
37065;SDS011;22981;43.080;25.550;2022-11-15T00:11:00;18.55;;;13.65;;
37065;SDS011;22981;43.080;25.550;2022-11-15T00:13:29;15.68;;;13.18;;
37065;SDS011;22981;43.080;25.550;2022-11-15T00:15:58;17.77;;;13.15;;
37065;SDS011;22981;43.080;25.550;2022-11-15T00:18:26;18.37;;;13.20;;
37065;SDS011;22981;43.080;25.550;2022-11-15T00:20:55;16.93;;;12.58;;
37065;SDS011;22981;43.080;25.550;2022-11-15T00:23:23;15.53;;;11.57;;
37065;SDS011;22981;43.080;25.550;2022-11-15T00:25:56;18.20;;;11.22;;
37065;SDS011;22981;43.080;25.550;2022-11-15T00:28:25;15.55;;;11.78;;
37065;SDS011;22981;43.080;25.550;2022-11-15T00:30:53;15.30;;;12.03;;
37065;SDS011;22981;43.080;25.550;2022-11-15T00:33:20;16.10;;;11.65;;
37065;SDS011;22981;43.080;25.550;2022-11-15T00:35:48;14.63;;;11.48;;
37065;SDS011;22981;43.080;25.550;2022-11-15T00:38:15;13.58;;;11.38;;
37065;SDS011;22981;43.080;25.550;2022-11-15T00:40:43;14.85;;;11.40;;
37065;SDS011;22981;43.080;25.550;2022-11-15T00:43:10;14.87;;;11.80;;
37065;SDS011;22981;43.080;25.550;2022-11-15T00:45:38;13.60;;;10.63;;
37065;SDS011;22981;43.080;25.550;2022-11-15T00:48:05;16.45;;;12.63;;
37065;SDS011;22981;43.080;25.550;2022-11-15T00:50:33;15.28;;;11.78;;
37065;SDS011;22981;43.080;25.550;2022-11-15T00:53:01;15.88;;;11.78;;
37065;SDS011;22981;43.080;25.550;2022-11-15T00:55:28;13.18;;;10.78;;
37065;SDS011;22981;43.080;25.550;2022-11-15T00:57:56;15.83;;;12.15;;
37065;SDS011;22981;43.080;25.550;2022-11-15T01:00:24;13.78;;;11.38;;
37065;SDS011;22981;43.080;25.550;2022-11-15T01:02:51;13.62;;;11.57;;
37065;SDS011;22981;43.080;25.550;2022-11-15T01:05:19;16.40;;;12.25;;
37065;SDS011;22981;43.080;25.550;2022-11-15T01:07:47;17.12;;;13.58;;
37065;SDS011;22981;43.080;25.550;2022-11-15T01:10:16;17.45;;;12.80;;
37065;SDS011;22981;43.080;25.550;2022-11-15T01:12:43;15.58;;;12.28;;
37065;SDS011;22981;43.080;25.550;2022-11-15T01:15:11;14.87;;;11.97;;
37065;SDS011;22981;43.080;25.550;2022-11-15T01:17:38;14.38;;;11.97;;
37065;SDS011;22981;43.080;25.550;2022-11-15T01:20:06;15.13;;;11.28;;
37065;SDS011;22981;43.080;25.550;2022-11-15T01:22:35;17.87;;;12.68;;
37065;SDS011;22981;43.080;25.550;2022-11-15T01:25:02;19.80;;;13.35;;
37065;SDS011;22981;43.080;25.550;2022-11-15T01:27:30;17.52;;;12.63;;
37065;SDS011;22981;43.080;25.550;2022-11-15T01:29:58;21.80;;;17.37;;
37065;SDS011;22981;43.080;25.550;2022-11-15T01:32:25;19.77;;;15.83;;
37065;SDS011;22981;43.080;25.550;2022-11-15T01:34:53;19.42;;;13.40;;
37065;SDS011;22981;43.080;25.550;2022-11-15T01:37:20;17.42;;;13.15;;
37065;SDS011;22981;43.080;25.550;2022-11-15T01:39:48;16.23;;;12.80;;
37065;SDS011;22981;43.080;25.550;2022-11-15T01:42:15;24.23;;;21.23;;
37065;SDS011;22981;43.080;25.550;2022-11-15T01:44:47;20.43;;;16.70;;
37065;SDS011;22981;43.080;25.550;2022-11-15T01:47:24;20.90;;;16.93;;
37065;SDS011;22981;43.080;25.550;2022-11-15T01:49:57;19.48;;;16.27;;
37065;SDS011;22981;43.080;25.550;2022-11-15T01:52:28;21.37;;;15.63;;
37065;SDS011;22981;43.080;25.550;2022-11-15T01:55:11;19.42;;;13.38;;
37065;SDS011;22981;43.080;25.550;2022-11-15T01:57:43;23.98;;;18.90;;
37065;SDS011;22981;43.080;25.550;2022-11-15T02:00:14;25.02;;;19.27;;
37065;SDS011;22981;43.080;25.550;2022-11-15T02:02:42;20.68;;;16.23;;
37065;SDS011;22981;43.080;25.550;2022-11-15T02:05:10;16.10;;;12.68;;
37065;SDS011;22981;43.080;25.550;2022-11-15T02:07:37;19.15;;;12.47;;
37065;SDS011;22981;43.080;25.550;2022-11-15T02:10:11;19.80;;;12.50;;
37065;SDS011;22981;43.080;25.550;2022-11-15T02:12:42;15.00;;;12.10;;
37065;SDS011;22981;43.080;25.550;2022-11-15T02:15:09;23.73;;;13.48;;
37065;SDS011;22981;43.080;25.550;2022-11-15T02:17:46;15.98;;;12.25;;
37065;SDS011;22981;43.080;25.550;2022-11-15T02:23:09;16.02;;;11.83;;
37065;SDS011;22981;43.080;25.550;2022-11-15T02:34:39;14.70;;;12.05;;
37065;SDS011;22981;43.080;25.550;2022-11-15T02:39:46;20.92;;;14.28;;
37065;SDS011;22981;43.080;25.550;2022-11-15T02:42:17;19.42;;;13.68;;
37065;SDS011;22981;43.080;25.550;2022-11-15T02:45:03;17.37;;;13.28;;
37065;SDS011;22981;43.080;25.550;2022-11-15T02:47:34;17.57;;;13.58;;
37065;SDS011;22981;43.080;25.550;2022-11-15T02:50:06;17.52;;;14.20;;
37065;SDS011;22981;43.080;25.550;2022-11-15T02:52:37;19.30;;;14.38;;
37065;SDS011;22981;43.080;25.550;2022-11-15T02:55:04;19.60;;;15.50;;
37065;SDS011;22981;43.080;25.550;2022-11-15T02:57:39;19.12;;;16.10;;
37065;SDS011;22981;43.080;25.550;2022-11-15T03:00:19;20.88;;;17.10;;
37065;SDS011;22981;43.080;25.550;2022-11-15T03:05:34;16.85;;;13.90;;
37065;SDS011;22981;43.080;25.550;2022-11-15T03:08:06;15.88;;;13.18;;
37065;SDS011;22981;43.080;25.550;2022-11-15T03:13:35;20.77;;;14.93;;
37065;SDS011;22981;43.080;25.550;2022-11-15T03:19:16;19.07;;;14.93;;
37065;SDS011;22981;43.080;25.550;2022-11-15T03:21:40;20.35;;;14.35;;
37065;SDS011;22981;43.080;25.550;2022-11-15T03:24:09;18.85;;;15.50;;
37065;SDS011;22981;43.080;25.550;2022-11-15T03:26:40;18.80;;;15.28;;
37065;SDS011;22981;43.080;25.550;2022-11-15T03:29:11;17.62;;;14.18;;
37065;SDS011;22981;43.080;25.550;2022-11-15T03:31:41;19.50;;;15.72;;
37065;SDS011;22981;43.080;25.550;2022-11-15T03:36:41;16.35;;;13.85;;
37065;SDS011;22981;43.080;25.550;2022-11-15T03:39:10;16.17;;;14.03;;
37065;SDS011;22981;43.080;25.550;2022-11-15T03:41:40;19.82;;;14.55;;
37065;SDS011;22981;43.080;25.550;2022-11-15T03:44:19;20.12;;;13.95;;
37065;SDS011;22981;43.080;25.550;2022-11-15T03:49:27;16.07;;;12.80;;
37065;SDS011;22981;43.080;25.550;2022-11-15T03:52:01;17.20;;;12.70;;
37065;SDS011;22981;43.080;25.550;2022-11-15T03:54:30;17.57;;;13.78;;
37065;SDS011;22981;43.080;25.550;2022-11-15T03:56:58;18.35;;;14.47;;
37065;SDS011;22981;43.080;25.550;2022-11-15T03:59:25;18.35;;;13.53;;
37065;SDS011;22981;43.080;25.550;2022-11-15T04:01:53;16.40;;;14.28;;
37065;SDS011;22981;43.080;25.550;2022-11-15T04:04:20;16.90;;;14.03;;
37065;SDS011;22981;43.080;25.550;2022-11-15T04:06:48;17.15;;;13.93;;
37065;SDS011;22981;43.080;25.550;2022-11-15T04:09:15;18.17;;;13.10;;
37065;SDS011;22981;43.080;25.550;2022-11-15T04:11:43;16.10;;;13.80;;
37065;SDS011;22981;43.080;25.550;2022-11-15T04:14:11;17.32;;;13.05;;
37065;SDS011;22981;43.080;25.550;2022-11-15T04:16:38;16.77;;;13.35;;
37065;SDS011;22981;43.080;25.550;2022-11-15T04:19:06;18.02;;;13.88;;
37065;SDS011;22981;43.080;25.550;2022-11-15T04:21:51;19.95;;;14.60;;
37065;SDS011;22981;43.080;25.550;2022-11-15T04:24:37;20.70;;;15.68;;
37065;SDS011;22981;43.080;25.550;2022-11-15T04:27:04;21.40;;;16.23;;
37065;SDS011;22981;43.080;25.550;2022-11-15T04:29:32;20.48;;;15.60;;
37065;SDS011;22981;43.080;25.550;2022-11-15T04:32:03;19.42;;;15.08;;
37065;SDS011;22981;43.080;25.550;2022-11-15T04:34:31;22.75;;;17.40;;
37065;SDS011;22981;43.080;25.550;2022-11-15T04:36:59;24.23;;;19.48;;
37065;SDS011;22981;43.080;25.550;2022-11-15T04:39:40;20.72;;;16.25;;
37065;SDS011;22981;43.080;25.550;2022-11-15T04:42:09;18.57;;;14.85;;
37065;SDS011;22981;43.080;25.550;2022-11-15T04:44:37;25.75;;;20.25;;
37065;SDS011;22981;43.080;25.550;2022-11-15T04:47:04;31.25;;;25.30;;
37065;SDS011;22981;43.080;25.550;2022-11-15T04:49:32;28.50;;;23.25;;
37065;SDS011;22981;43.080;25.550;2022-11-15T04:51:59;25.40;;;20.30;;
37065;SDS011;22981;43.080;25.550;2022-11-15T04:54:27;22.27;;;17.40;;
37065;SDS011;22981;43.080;25.550;2022-11-15T04:56:55;22.22;;;16.65;;
37065;SDS011;22981;43.080;25.550;2022-11-15T04:59:22;21.20;;;16.05;;
37065;SDS011;22981;43.080;25.550;2022-11-15T05:01:50;18.00;;;14.33;;
37065;SDS011;22981;43.080;25.550;2022-11-15T05:04:17;21.12;;;15.48;;
37065;SDS011;22981;43.080;25.550;2022-11-15T05:06:48;17.45;;;14.13;;
37065;SDS011;22981;43.080;25.550;2022-11-15T05:09:17;12.28;;;9.83;;
37065;SDS011;22981;43.080;25.550;2022-11-15T05:11:46;18.17;;;14.60;;
37065;SDS011;22981;43.080;25.550;2022-11-15T05:14:14;16.62;;;13.35;;
37065;SDS011;22981;43.080;25.550;2022-11-15T05:16:42;17.42;;;13.03;;
37065;SDS011;22981;43.080;25.550;2022-11-15T05:19:10;15.60;;;12.93;;
37065;SDS011;22981;43.080;25.550;2022-11-15T05:21:37;15.75;;;12.78;;
37065;SDS011;22981;43.080;25.550;2022-11-15T05:24:05;16.80;;;13.25;;
37065;SDS011;22981;43.080;25.550;2022-11-15T05:26:33;19.82;;;13.48;;
37065;SDS011;22981;43.080;25.550;2022-11-15T05:29:00;17.92;;;14.35;;
37065;SDS011;22981;43.080;25.550;2022-11-15T05:31:28;18.95;;;13.53;;
37065;SDS011;22981;43.080;25.550;2022-11-15T05:33:56;14.60;;;12.63;;
37065;SDS011;22981;43.080;25.550;2022-11-15T05:36:37;16.35;;;13.15;;
37065;SDS011;22981;43.080;25.550;2022-11-15T05:39:06;17.42;;;13.70;;
37065;SDS011;22981;43.080;25.550;2022-11-15T05:41:40;16.85;;;13.10;;
37065;SDS011;22981;43.080;25.550;2022-11-15T05:44:05;16.17;;;12.82;;
37065;SDS011;22981;43.080;25.550;2022-11-15T05:46:35;18.02;;;13.60;;
37065;SDS011;22981;43.080;25.550;2022-11-15T05:49:07;16.65;;;13.48;;
37065;SDS011;22981;43.080;25.550;2022-11-15T05:51:37;20.17;;;14.87;;
37065;SDS011;22981;43.080;25.550;2022-11-15T05:54:05;18.25;;;14.73;;
37065;SDS011;22981;43.080;25.550;2022-11-15T05:56:33;18.98;;;15.18;;
37065;SDS011;22981;43.080;25.550;2022-11-15T05:59:01;48.58;;;30.45;;
37065;SDS011;22981;43.080;25.550;2022-11-15T06:01:29;47.73;;;31.62;;
37065;SDS011;22981;43.080;25.550;2022-11-15T06:03:57;31.23;;;23.30;;
37065;SDS011;22981;43.080;25.550;2022-11-15T06:06:24;27.65;;;19.37;;
37065;SDS011;22981;43.080;25.550;2022-11-15T06:08:53;28.32;;;20.85;;
37065;SDS011;22981;43.080;25.550;2022-11-15T06:11:21;27.07;;;18.42;;
37065;SDS011;22981;43.080;25.550;2022-11-15T06:13:49;25.23;;;17.45;;
37065;SDS011;22981;43.080;25.550;2022-11-15T06:16:16;21.95;;;17.23;;
37065;SDS011;22981;43.080;25.550;2022-11-15T06:18:44;24.50;;;18.23;;
37065;SDS011;22981;43.080;25.550;2022-11-15T06:21:11;24.70;;;18.23;;
37065;SDS011;22981;43.080;25.550;2022-11-15T06:23:39;40.50;;;33.20;;
37065;SDS011;22981;43.080;25.550;2022-11-15T06:26:06;29.00;;;22.17;;
37065;SDS011;22981;43.080;25.550;2022-11-15T06:28:34;24.20;;;17.35;;
37065;SDS011;22981;43.080;25.550;2022-11-15T06:31:02;24.27;;;18.10;;
37065;SDS011;22981;43.080;25.550;2022-11-15T06:33:31;22.80;;;16.85;;
37065;SDS011;22981;43.080;25.550;2022-11-15T06:36:06;21.40;;;17.42;;
37065;SDS011;22981;43.080;25.550;2022-11-15T06:38:35;20.57;;;17.00;;
37065;SDS011;22981;43.080;25.550;2022-11-15T06:41:09;24.77;;;18.45;;
37065;SDS011;22981;43.080;25.550;2022-11-15T06:43:33;21.68;;;16.40;;
37065;SDS011;22981;43.080;25.550;2022-11-15T06:46:02;23.83;;;16.87;;
37065;SDS011;22981;43.080;25.550;2022-11-15T06:48:31;23.47;;;16.75;;
37065;SDS011;22981;43.080;25.550;2022-11-15T06:51:00;20.20;;;15.88;;
37065;SDS011;22981;43.080;25.550;2022-11-15T06:53:29;19.92;;;16.00;;
37065;SDS011;22981;43.080;25.550;2022-11-15T06:56:01;22.48;;;16.30;;
37065;SDS011;22981;43.080;25.550;2022-11-15T06:58:30;14.00;;;11.08;;
37065;SDS011;22981;43.080;25.550;2022-11-15T07:00:58;18.82;;;14.98;;
37065;SDS011;22981;43.080;25.550;2022-11-15T07:03:30;21.23;;;16.82;;
37065;SDS011;22981;43.080;25.550;2022-11-15T07:05:58;25.23;;;16.40;;
37065;SDS011;22981;43.080;25.550;2022-11-15T07:08:27;23.83;;;16.05;;
37065;SDS011;22981;43.080;25.550;2022-11-15T07:10:59;20.05;;;15.90;;
37065;SDS011;22981;43.080;25.550;2022-11-15T07:13:28;14.50;;;11.10;;
37065;SDS011;22981;43.080;25.550;2022-11-15T07:16:04;21.07;;;16.00;;
37065;SDS011;22981;43.080;25.550;2022-11-15T07:18:36;25.68;;;21.90;;
37065;SDS011;22981;43.080;25.550;2022-11-15T07:21:05;17.57;;;13.30;;
37065;SDS011;22981;43.080;25.550;2022-11-15T07:23:40;21.40;;;16.10;;
37065;SDS011;22981;43.080;25.550;2022-11-15T07:26:04;19.85;;;15.38;;
37065;SDS011;22981;43.080;25.550;2022-11-15T07:28:32;20.55;;;16.73;;
37065;SDS011;22981;43.080;25.550;2022-11-15T07:31:03;23.00;;;16.85;;
37065;SDS011;22981;43.080;25.550;2022-11-15T07:33:32;19.70;;;14.40;;
37065;SDS011;22981;43.080;25.550;2022-11-15T07:36:00;21.50;;;17.25;;
37065;SDS011;22981;43.080;25.550;2022-11-15T07:38:29;19.98;;;15.60;;
37065;SDS011;22981;43.080;25.550;2022-11-15T07:40:58;18.67;;;15.15;;
37065;SDS011;22981;43.080;25.550;2022-11-15T14:36:47;27.42;;;19.75;;
